sensor_id;sensor_type;location;lat;lon;timestamp;temperature;humidity
21047;DHT22;10682;50.874;3.656;2023-10-19T00:02:14;16.70;99.90
21047;DHT22;10682;50.874;3.656;2023-10-19T00:04:55;16.70;99.90
21047;DHT22;10682;50.874;3.656;2023-10-19T00:07:44;16.70;99.90
21047;DHT22;10682;50.874;3.656;2023-10-19T00:10:17;16.60;99.90
21047;DHT22;10682;50.874;3.656;2023-10-19T00:12:47;16.60;99.90
21047;DHT22;10682;50.874;3.656;2023-10-19T00:15:26;16.60;99.90
21047;DHT22;10682;50.874;3.656;2023-10-19T00:18:01;16.60;99.90
21047;DHT22;10682;50.874;3.656;2023-10-19T00:21:00;16.60;99.90
21047;DHT22;10682;50.874;3.656;2023-10-19T00:24:02;16.60;99.90
21047;DHT22;10682;50.874;3.656;2023-10-19T00:26:51;16.50;99.90
21047;DHT22;10682;50.874;3.656;2023-10-19T00:29:40;16.60;99.90
21047;DHT22;10682;50.874;3.656;2023-10-19T00:32:39;16.50;99.90
21047;DHT22;10682;50.874;3.656;2023-10-19T00:35:18;16.60;99.90
21047;DHT22;10682;50.874;3.656;2023-10-19T00:38:15;16.60;99.90
21047;DHT22;10682;50.874;3.656;2023-10-19T00:41:37;16.50;99.90
21047;DHT22;10682;50.874;3.656;2023-10-19T00:44:14;16.50;99.90
21047;DHT22;10682;50.874;3.656;2023-10-19T00:47:20;16.50;99.90
21047;DHT22;10682;50.874;3.656;2023-10-19T00:50:08;16.50;99.90
21047;DHT22;10682;50.874;3.656;2023-10-19T00:53:08;16.50;99.90
21047;DHT22;10682;50.874;3.656;2023-10-19T00:55:46;16.60;99.90
21047;DHT22;10682;50.874;3.656;2023-10-19T00:58:18;16.60;99.90
21047;DHT22;10682;50.874;3.656;2023-10-19T01:00:57;16.50;99.90
21047;DHT22;10682;50.874;3.656;2023-10-19T01:04:05;16.50;99.90
21047;DHT22;10682;50.874;3.656;2023-10-19T01:06:47;16.50;99.90
21047;DHT22;10682;50.874;3.656;2023-10-19T01:09:47;16.50;99.90
21047;DHT22;10682;50.874;3.656;2023-10-19T01:13:06;16.50;99.90
21047;DHT22;10682;50.874;3.656;2023-10-19T01:16:17;16.40;99.90
21047;DHT22;10682;50.874;3.656;2023-10-19T01:19:14;16.40;99.90
21047;DHT22;10682;50.874;3.656;2023-10-19T01:22:16;16.30;99.90
21047;DHT22;10682;50.874;3.656;2023-10-19T01:24:56;16.30;99.90
21047;DHT22;10682;50.874;3.656;2023-10-19T01:27:24;16.30;99.90
21047;DHT22;10682;50.874;3.656;2023-10-19T01:30:37;16.30;99.90
21047;DHT22;10682;50.874;3.656;2023-10-19T01:33:12;16.30;99.90
21047;DHT22;10682;50.874;3.656;2023-10-19T01:35:40;16.20;99.90
21047;DHT22;10682;50.874;3.656;2023-10-19T01:38:42;16.20;99.90
21047;DHT22;10682;50.874;3.656;2023-10-19T01:41:27;16.20;99.90
21047;DHT22;10682;50.874;3.656;2023-10-19T01:44:46;16.30;99.90
21047;DHT22;10682;50.874;3.656;2023-10-19T01:47:28;16.20;99.90
21047;DHT22;10682;50.874;3.656;2023-10-19T01:49:56;16.10;99.90
21047;DHT22;10682;50.874;3.656;2023-10-19T01:52:43;16.10;99.90
21047;DHT22;10682;50.874;3.656;2023-10-19T01:55:57;16.00;99.90
21047;DHT22;10682;50.874;3.656;2023-10-19T02:02:06;16.00;99.90
21047;DHT22;10682;50.874;3.656;2023-10-19T02:05:12;16.00;99.90
21047;DHT22;10682;50.874;3.656;2023-10-19T02:07:56;16.00;99.90
21047;DHT22;10682;50.874;3.656;2023-10-19T02:10:33;16.00;99.90
21047;DHT22;10682;50.874;3.656;2023-10-19T02:13:08;16.00;99.90
21047;DHT22;10682;50.874;3.656;2023-10-19T02:16:14;16.00;99.90
21047;DHT22;10682;50.874;3.656;2023-10-19T02:19:06;16.00;99.90
21047;DHT22;10682;50.874;3.656;2023-10-19T02:21:34;16.00;99.90
21047;DHT22;10682;50.874;3.656;2023-10-19T02:24:26;16.00;99.90
21047;DHT22;10682;50.874;3.656;2023-10-19T02:26:55;16.00;99.90
21047;DHT22;10682;50.874;3.656;2023-10-19T02:29:27;16.00;99.90
21047;DHT22;10682;50.874;3.656;2023-10-19T02:31:59;16.00;99.90
21047;DHT22;10682;50.874;3.656;2023-10-19T02:37:59;16.00;99.90
21047;DHT22;10682;50.874;3.656;2023-10-19T02:40:29;16.00;99.90
21047;DHT22;10682;50.874;3.656;2023-10-19T02:43:00;16.00;99.90
21047;DHT22;10682;50.874;3.656;2023-10-19T02:45:37;16.00;99.90
21047;DHT22;10682;50.874;3.656;2023-10-19T02:48:32;16.00;99.90
21047;DHT22;10682;50.874;3.656;2023-10-19T02:51:19;16.00;99.90
21047;DHT22;10682;50.874;3.656;2023-10-19T02:53:54;16.00;99.90
21047;DHT22;10682;50.874;3.656;2023-10-19T02:56:22;16.00;99.90
21047;DHT22;10682;50.874;3.656;2023-10-19T02:59:18;16.10;99.90
21047;DHT22;10682;50.874;3.656;2023-10-19T03:02:48;16.00;99.90
21047;DHT22;10682;50.874;3.656;2023-10-19T03:05:27;16.00;99.90
21047;DHT22;10682;50.874;3.656;2023-10-19T03:07:56;16.00;99.90
21047;DHT22;10682;50.874;3.656;2023-10-19T03:10:33;16.00;99.90
21047;DHT22;10682;50.874;3.656;2023-10-19T03:13:21;16.00;99.90
21047;DHT22;10682;50.874;3.656;2023-10-19T03:15:51;16.00;99.90
21047;DHT22;10682;50.874;3.656;2023-10-19T03:18:52;16.00;99.90
21047;DHT22;10682;50.874;3.656;2023-10-19T03:21:28;16.00;99.90
21047;DHT22;10682;50.874;3.656;2023-10-19T03:24:09;16.00;99.90
21047;DHT22;10682;50.874;3.656;2023-10-19T03:26:57;16.00;99.90
21047;DHT22;10682;50.874;3.656;2023-10-19T03:30:06;16.00;99.90
21047;DHT22;10682;50.874;3.656;2023-10-19T03:32:42;16.00;99.90
21047;DHT22;10682;50.874;3.656;2023-10-19T03:35:29;16.00;99.90
21047;DHT22;10682;50.874;3.656;2023-10-19T03:38:04;16.00;99.90
21047;DHT22;10682;50.874;3.656;2023-10-19T03:40:58;16.00;99.90
21047;DHT22;10682;50.874;3.656;2023-10-19T03:43:42;16.00;99.90
21047;DHT22;10682;50.874;3.656;2023-10-19T03:46:12;16.00;99.90
21047;DHT22;10682;50.874;3.656;2023-10-19T03:48:58;16.00;99.90
21047;DHT22;10682;50.874;3.656;2023-10-19T03:51:52;16.00;99.90
21047;DHT22;10682;50.874;3.656;2023-10-19T03:54:26;16.00;99.90
21047;DHT22;10682;50.874;3.656;2023-10-19T03:57:02;16.00;99.90
21047;DHT22;10682;50.874;3.656;2023-10-19T04:02:44;15.90;99.90
21047;DHT22;10682;50.874;3.656;2023-10-19T04:05:14;15.90;99.90
21047;DHT22;10682;50.874;3.656;2023-10-19T04:07:59;15.90;99.90
21047;DHT22;10682;50.874;3.656;2023-10-19T04:11:11;15.90;99.90
21047;DHT22;10682;50.874;3.656;2023-10-19T04:13:41;16.00;99.90
21047;DHT22;10682;50.874;3.656;2023-10-19T04:16:17;16.00;99.90
21047;DHT22;10682;50.874;3.656;2023-10-19T04:18:53;16.00;99.90
21047;DHT22;10682;50.874;3.656;2023-10-19T04:21:23;16.00;99.90
21047;DHT22;10682;50.874;3.656;2023-10-19T04:24:00;16.00;99.90
21047;DHT22;10682;50.874;3.656;2023-10-19T04:26:42;16.00;99.90
21047;DHT22;10682;50.874;3.656;2023-10-19T04:29:09;16.00;99.90
21047;DHT22;10682;50.874;3.656;2023-10-19T04:31:38;16.00;99.90
21047;DHT22;10682;50.874;3.656;2023-10-19T04:34:22;16.00;99.90
21047;DHT22;10682;50.874;3.656;2023-10-19T04:36:53;16.00;99.90
21047;DHT22;10682;50.874;3.656;2023-10-19T04:39:23;16.00;99.90
21047;DHT22;10682;50.874;3.656;2023-10-19T04:41:53;16.10;99.90
21047;DHT22;10682;50.874;3.656;2023-10-19T04:44:22;16.10;99.90
21047;DHT22;10682;50.874;3.656;2023-10-19T04:46:49;16.10;99.90
21047;DHT22;10682;50.874;3.656;2023-10-19T04:49:53;16.10;99.90
21047;DHT22;10682;50.874;3.656;2023-10-19T04:52:32;16.10;99.90
21047;DHT22;10682;50.874;3.656;2023-10-19T04:55:02;16.00;99.90
21047;DHT22;10682;50.874;3.656;2023-10-19T04:57:32;16.10;99.90
21047;DHT22;10682;50.874;3.656;2023-10-19T05:00:51;16.10;99.90
21047;DHT22;10682;50.874;3.656;2023-10-19T05:03:22;16.00;99.90
21047;DHT22;10682;50.874;3.656;2023-10-19T05:06:32;16.00;99.90
21047;DHT22;10682;50.874;3.656;2023-10-19T05:09:09;16.00;99.90
21047;DHT22;10682;50.874;3.656;2023-10-19T05:15:17;16.00;99.90
21047;DHT22;10682;50.874;3.656;2023-10-19T05:17:47;16.00;99.90
21047;DHT22;10682;50.874;3.656;2023-10-19T05:20:21;16.00;99.90
21047;DHT22;10682;50.874;3.656;2023-10-19T05:24:27;16.00;99.90
21047;DHT22;10682;50.874;3.656;2023-10-19T05:31:48;16.00;99.90
21047;DHT22;10682;50.874;3.656;2023-10-19T05:38:41;16.00;99.90
21047;DHT22;10682;50.874;3.656;2023-10-19T05:41:36;16.00;99.90
21047;DHT22;10682;50.874;3.656;2023-10-19T05:48:14;16.00;99.90
21047;DHT22;10682;50.874;3.656;2023-10-19T05:51:06;16.00;99.90
21047;DHT22;10682;50.874;3.656;2023-10-19T05:54:29;16.00;99.90
21047;DHT22;10682;50.874;3.656;2023-10-19T06:02:20;15.90;99.90
21047;DHT22;10682;50.874;3.656;2023-10-19T06:05:06;15.90;99.90
21047;DHT22;10682;50.874;3.656;2023-10-19T06:08:49;15.80;99.90
21047;DHT22;10682;50.874;3.656;2023-10-19T06:11:28;15.80;99.90
21047;DHT22;10682;50.874;3.656;2023-10-19T06:18:15;15.80;99.90
21047;DHT22;10682;50.874;3.656;2023-10-19T06:21:35;15.70;99.90
21047;DHT22;10682;50.874;3.656;2023-10-19T06:25:10;15.70;99.90
21047;DHT22;10682;50.874;3.656;2023-10-19T06:48:38;15.70;99.90
21047;DHT22;10682;50.874;3.656;2023-10-19T06:51:38;15.70;99.90
21047;DHT22;10682;50.874;3.656;2023-10-19T06:58:39;15.80;99.90
21047;DHT22;10682;50.874;3.656;2023-10-19T07:05:18;15.80;99.90
21047;DHT22;10682;50.874;3.656;2023-10-19T07:16:46;15.80;99.90
21047;DHT22;10682;50.874;3.656;2023-10-19T07:50:18;16.10;99.90
21047;DHT22;10682;50.874;3.656;2023-10-19T07:53:57;16.10;99.90
21047;DHT22;10682;50.874;3.656;2023-10-19T07:57:27;16.30;99.90
21047;DHT22;10682;50.874;3.656;2023-10-19T08:03:58;16.70;99.90
21047;DHT22;10682;50.874;3.656;2023-10-19T08:10:27;18.40;99.90
21047;DHT22;10682;50.874;3.656;2023-10-19T08:13:16;19.00;99.90
21047;DHT22;10682;50.874;3.656;2023-10-19T08:16:38;18.80;99.90
21047;DHT22;10682;50.874;3.656;2023-10-19T08:24:39;18.60;99.90
21047;DHT22;10682;50.874;3.656;2023-10-19T08:28:25;17.80;99.90
21047;DHT22;10682;50.874;3.656;2023-10-19T08:31:14;17.30;99.90
21047;DHT22;10682;50.874;3.656;2023-10-19T08:37:50;17.00;99.90
21047;DHT22;10682;50.874;3.656;2023-10-19T08:41:03;17.00;99.90
21047;DHT22;10682;50.874;3.656;2023-10-19T08:43:56;16.90;99.90
21047;DHT22;10682;50.874;3.656;2023-10-19T08:51:10;16.80;99.90
21047;DHT22;10682;50.874;3.656;2023-10-19T08:59:13;16.90;99.90
21047;DHT22;10682;50.874;3.656;2023-10-19T09:05:52;16.90;99.90
21047;DHT22;10682;50.874;3.656;2023-10-19T09:14:09;17.20;99.90
21047;DHT22;10682;50.874;3.656;2023-10-19T09:17:43;17.50;99.90
21047;DHT22;10682;50.874;3.656;2023-10-19T09:20:36;17.70;99.90
21047;DHT22;10682;50.874;3.656;2023-10-19T09:27:56;17.70;99.90
21047;DHT22;10682;50.874;3.656;2023-10-19T09:31:19;17.80;99.90
21047;DHT22;10682;50.874;3.656;2023-10-19T09:34:32;17.80;99.90
21047;DHT22;10682;50.874;3.656;2023-10-19T09:41:48;17.90;99.90
21047;DHT22;10682;50.874;3.656;2023-10-19T09:45:34;17.90;99.90
21047;DHT22;10682;50.874;3.656;2023-10-19T10:16:06;17.90;99.90
21047;DHT22;10682;50.874;3.656;2023-10-19T10:19:20;17.90;99.90
21047;DHT22;10682;50.874;3.656;2023-10-19T10:22:08;17.80;99.90
21047;DHT22;10682;50.874;3.656;2023-10-19T10:24:42;17.80;99.90
21047;DHT22;10682;50.874;3.656;2023-10-19T10:27:09;17.70;99.90
21047;DHT22;10682;50.874;3.656;2023-10-19T10:30:04;17.60;99.90
21047;DHT22;10682;50.874;3.656;2023-10-19T10:32:53;17.50;99.90
21047;DHT22;10682;50.874;3.656;2023-10-19T10:38:10;17.30;99.90
21047;DHT22;10682;50.874;3.656;2023-10-19T10:40:45;17.30;99.90
21047;DHT22;10682;50.874;3.656;2023-10-19T10:43:15;17.20;99.90
21047;DHT22;10682;50.874;3.656;2023-10-19T10:45:43;17.20;99.90
21047;DHT22;10682;50.874;3.656;2023-10-19T10:48:15;17.40;99.90
21047;DHT22;10682;50.874;3.656;2023-10-19T10:50:43;17.60;99.90
21047;DHT22;10682;50.874;3.656;2023-10-19T10:53:14;17.80;99.90
21047;DHT22;10682;50.874;3.656;2023-10-19T10:55:42;18.10;99.90
21047;DHT22;10682;50.874;3.656;2023-10-19T10:58:14;18.30;99.90
21047;DHT22;10682;50.874;3.656;2023-10-19T11:00:44;18.40;99.90
21047;DHT22;10682;50.874;3.656;2023-10-19T11:03:16;18.50;99.90
21047;DHT22;10682;50.874;3.656;2023-10-19T11:05:48;18.50;99.90
21047;DHT22;10682;50.874;3.656;2023-10-19T11:08:18;18.40;99.90
21047;DHT22;10682;50.874;3.656;2023-10-19T11:10:49;18.40;99.90
21047;DHT22;10682;50.874;3.656;2023-10-19T11:13:22;18.40;99.90
21047;DHT22;10682;50.874;3.656;2023-10-19T11:15:54;18.50;99.90
21047;DHT22;10682;50.874;3.656;2023-10-19T11:18:38;18.50;99.90
21047;DHT22;10682;50.874;3.656;2023-10-19T11:21:08;18.50;99.90
21047;DHT22;10682;50.874;3.656;2023-10-19T11:26:19;18.40;99.90
21047;DHT22;10682;50.874;3.656;2023-10-19T11:28:57;18.40;99.90
21047;DHT22;10682;50.874;3.656;2023-10-19T11:31:25;18.50;99.90
21047;DHT22;10682;50.874;3.656;2023-10-19T11:34:04;18.60;99.90
21047;DHT22;10682;50.874;3.656;2023-10-19T11:36:31;18.80;99.90
21047;DHT22;10682;50.874;3.656;2023-10-19T11:38:58;18.80;99.90
21047;DHT22;10682;50.874;3.656;2023-10-19T11:41:26;18.90;99.90
21047;DHT22;10682;50.874;3.656;2023-10-19T11:43:54;18.90;99.90
21047;DHT22;10682;50.874;3.656;2023-10-19T11:46:25;18.90;99.90
21047;DHT22;10682;50.874;3.656;2023-10-19T11:48:52;18.90;99.90
21047;DHT22;10682;50.874;3.656;2023-10-19T11:51:23;18.90;99.90
21047;DHT22;10682;50.874;3.656;2023-10-19T11:53:50;18.90;99.90
21047;DHT22;10682;50.874;3.656;2023-10-19T11:56:17;19.00;99.90
21047;DHT22;10682;50.874;3.656;2023-10-19T11:58:47;18.90;99.90
21047;DHT22;10682;50.874;3.656;2023-10-19T12:01:16;18.90;99.90
21047;DHT22;10682;50.874;3.656;2023-10-19T12:03:46;18.80;99.90
21047;DHT22;10682;50.874;3.656;2023-10-19T12:06:15;18.60;99.90
21047;DHT22;10682;50.874;3.656;2023-10-19T12:08:52;18.60;99.90
21047;DHT22;10682;50.874;3.656;2023-10-19T12:11:24;18.50;99.90
21047;DHT22;10682;50.874;3.656;2023-10-19T12:13:53;18.50;99.90
21047;DHT22;10682;50.874;3.656;2023-10-19T12:16:21;18.40;99.90
21047;DHT22;10682;50.874;3.656;2023-10-19T12:18:53;18.40;99.90
21047;DHT22;10682;50.874;3.656;2023-10-19T12:21:26;18.40;99.90
21047;DHT22;10682;50.874;3.656;2023-10-19T12:24:01;18.40;99.90
21047;DHT22;10682;50.874;3.656;2023-10-19T12:26:38;18.40;99.90
21047;DHT22;10682;50.874;3.656;2023-10-19T12:29:05;18.50;99.90
21047;DHT22;10682;50.874;3.656;2023-10-19T12:31:44;18.50;99.90
21047;DHT22;10682;50.874;3.656;2023-10-19T12:34:11;18.70;99.90
21047;DHT22;10682;50.874;3.656;2023-10-19T12:36:53;19.00;99.90
21047;DHT22;10682;50.874;3.656;2023-10-19T12:39:42;19.40;99.90
21047;DHT22;10682;50.874;3.656;2023-10-19T12:42:44;19.90;99.90
21047;DHT22;10682;50.874;3.656;2023-10-19T12:45:14;20.20;99.90
21047;DHT22;10682;50.874;3.656;2023-10-19T12:47:47;20.50;99.90
21047;DHT22;10682;50.874;3.656;2023-10-19T12:53:37;21.20;99.90
21047;DHT22;10682;50.874;3.656;2023-10-19T12:56:35;20.80;99.90
21047;DHT22;10682;50.874;3.656;2023-10-19T12:59:39;20.30;99.90
21047;DHT22;10682;50.874;3.656;2023-10-19T13:02:25;20.20;99.90
21047;DHT22;10682;50.874;3.656;2023-10-19T13:05:22;20.20;99.90
21047;DHT22;10682;50.874;3.656;2023-10-19T13:08:23;20.40;99.90
21047;DHT22;10682;50.874;3.656;2023-10-19T13:10:55;20.60;99.90
21047;DHT22;10682;50.874;3.656;2023-10-19T13:13:42;20.30;99.90
21047;DHT22;10682;50.874;3.656;2023-10-19T13:16:49;20.00;99.90
21047;DHT22;10682;50.874;3.656;2023-10-19T13:19:37;19.70;99.90
21047;DHT22;10682;50.874;3.656;2023-10-19T13:30:23;19.50;99.90
21047;DHT22;10682;50.874;3.656;2023-10-19T13:34:08;19.40;99.90
21047;DHT22;10682;50.874;3.656;2023-10-19T13:37:35;19.40;99.90
21047;DHT22;10682;50.874;3.656;2023-10-19T13:48:25;20.20;99.90
21047;DHT22;10682;50.874;3.656;2023-10-19T13:50:53;20.60;99.90
21047;DHT22;10682;50.874;3.656;2023-10-19T13:59:06;20.60;99.90
21047;DHT22;10682;50.874;3.656;2023-10-19T14:09:42;20.80;99.90
21047;DHT22;10682;50.874;3.656;2023-10-19T14:13:26;20.70;99.90
21047;DHT22;10682;50.874;3.656;2023-10-19T14:20:16;20.60;99.90
21047;DHT22;10682;50.874;3.656;2023-10-19T14:36:14;20.10;99.90
21047;DHT22;10682;50.874;3.656;2023-10-19T15:46:20;19.40;99.90
21047;DHT22;10682;50.874;3.656;2023-10-19T16:39:57;18.10;99.90
21047;DHT22;10682;50.874;3.656;2023-10-19T16:42:25;18.00;99.90
21047;DHT22;10682;50.874;3.656;2023-10-19T16:44:53;17.90;99.90
21047;DHT22;10682;50.874;3.656;2023-10-19T16:47:20;17.90;99.90
21047;DHT22;10682;50.874;3.656;2023-10-19T16:49:49;17.80;99.90
21047;DHT22;10682;50.874;3.656;2023-10-19T16:52:16;17.70;99.90
21047;DHT22;10682;50.874;3.656;2023-10-19T16:54:44;17.60;99.90
21047;DHT22;10682;50.874;3.656;2023-10-19T16:57:11;17.50;99.90
21047;DHT22;10682;50.874;3.656;2023-10-19T16:59:39;17.50;99.90
21047;DHT22;10682;50.874;3.656;2023-10-19T17:02:06;17.30;99.90
21047;DHT22;10682;50.874;3.656;2023-10-19T17:04:34;17.20;99.90
21047;DHT22;10682;50.874;3.656;2023-10-19T17:07:02;17.20;99.90
21047;DHT22;10682;50.874;3.656;2023-10-19T17:09:29;17.00;99.90
21047;DHT22;10682;50.874;3.656;2023-10-19T17:11:56;16.90;99.90
21047;DHT22;10682;50.874;3.656;2023-10-19T17:14:24;16.80;99.90
21047;DHT22;10682;50.874;3.656;2023-10-19T17:16:52;16.70;99.90
21047;DHT22;10682;50.874;3.656;2023-10-19T17:19:21;16.70;99.90
21047;DHT22;10682;50.874;3.656;2023-10-19T17:22:09;16.60;99.90
21047;DHT22;10682;50.874;3.656;2023-10-19T17:24:36;16.50;99.90
21047;DHT22;10682;50.874;3.656;2023-10-19T17:27:03;16.50;99.90
21047;DHT22;10682;50.874;3.656;2023-10-19T17:29:33;16.30;99.90
21047;DHT22;10682;50.874;3.656;2023-10-19T17:32:01;16.30;99.90
21047;DHT22;10682;50.874;3.656;2023-10-19T17:34:31;16.30;99.90
21047;DHT22;10682;50.874;3.656;2023-10-19T17:36:59;16.30;99.90
21047;DHT22;10682;50.874;3.656;2023-10-19T17:39:26;16.20;99.90
21047;DHT22;10682;50.874;3.656;2023-10-19T17:41:55;16.20;99.90
21047;DHT22;10682;50.874;3.656;2023-10-19T17:44:26;16.20;99.90
21047;DHT22;10682;50.874;3.656;2023-10-19T17:46:53;16.10;99.90
21047;DHT22;10682;50.874;3.656;2023-10-19T17:49:20;16.10;99.90
21047;DHT22;10682;50.874;3.656;2023-10-19T17:51:47;16.10;99.90
21047;DHT22;10682;50.874;3.656;2023-10-19T17:54:14;16.10;99.90
21047;DHT22;10682;50.874;3.656;2023-10-19T17:56:42;16.10;99.90
21047;DHT22;10682;50.874;3.656;2023-10-19T17:59:09;16.10;99.90
21047;DHT22;10682;50.874;3.656;2023-10-19T18:01:37;16.20;99.90
21047;DHT22;10682;50.874;3.656;2023-10-19T18:04:05;16.30;99.90
21047;DHT22;10682;50.874;3.656;2023-10-19T18:06:35;16.30;99.90
21047;DHT22;10682;50.874;3.656;2023-10-19T18:09:03;16.40;99.90
21047;DHT22;10682;50.874;3.656;2023-10-19T18:11:31;16.40;99.90
21047;DHT22;10682;50.874;3.656;2023-10-19T18:13:58;16.40;99.90
21047;DHT22;10682;50.874;3.656;2023-10-19T18:16:25;16.50;99.90
21047;DHT22;10682;50.874;3.656;2023-10-19T18:19:01;16.50;99.90
21047;DHT22;10682;50.874;3.656;2023-10-19T18:21:28;16.60;99.90
21047;DHT22;10682;50.874;3.656;2023-10-19T18:23:55;16.70;99.90
21047;DHT22;10682;50.874;3.656;2023-10-19T18:26:22;16.70;99.90
21047;DHT22;10682;50.874;3.656;2023-10-19T18:28:50;16.70;99.90
21047;DHT22;10682;50.874;3.656;2023-10-19T18:31:18;16.70;99.90
21047;DHT22;10682;50.874;3.656;2023-10-19T18:33:45;16.70;99.90
21047;DHT22;10682;50.874;3.656;2023-10-19T18:36:12;16.70;99.90
21047;DHT22;10682;50.874;3.656;2023-10-19T18:38:43;16.70;99.90
21047;DHT22;10682;50.874;3.656;2023-10-19T18:41:10;16.70;99.90
21047;DHT22;10682;50.874;3.656;2023-10-19T18:43:38;16.70;99.90
21047;DHT22;10682;50.874;3.656;2023-10-19T18:46:05;16.70;99.90
21047;DHT22;10682;50.874;3.656;2023-10-19T18:48:32;16.60;99.90
21047;DHT22;10682;50.874;3.656;2023-10-19T18:51:02;16.60;99.90
21047;DHT22;10682;50.874;3.656;2023-10-19T18:53:31;16.60;99.90
21047;DHT22;10682;50.874;3.656;2023-10-19T18:56:03;16.50;99.90
21047;DHT22;10682;50.874;3.656;2023-10-19T18:58:34;16.50;99.90
21047;DHT22;10682;50.874;3.656;2023-10-19T19:01:03;16.50;99.90
21047;DHT22;10682;50.874;3.656;2023-10-19T19:03:33;16.50;99.90
21047;DHT22;10682;50.874;3.656;2023-10-19T19:06:02;16.50;99.90
21047;DHT22;10682;50.874;3.656;2023-10-19T19:08:38;16.50;99.90
21047;DHT22;10682;50.874;3.656;2023-10-19T19:11:14;16.50;99.90
21047;DHT22;10682;50.874;3.656;2023-10-19T19:13:44;16.50;99.90
21047;DHT22;10682;50.874;3.656;2023-10-19T19:16:45;16.50;99.90
21047;DHT22;10682;50.874;3.656;2023-10-19T19:19:13;16.50;99.90
21047;DHT22;10682;50.874;3.656;2023-10-19T19:21:40;16.40;99.90
21047;DHT22;10682;50.874;3.656;2023-10-19T19:24:10;16.40;99.90
21047;DHT22;10682;50.874;3.656;2023-10-19T19:26:37;16.40;99.90
21047;DHT22;10682;50.874;3.656;2023-10-19T19:29:04;16.40;99.90
21047;DHT22;10682;50.874;3.656;2023-10-19T19:31:32;16.40;99.90
21047;DHT22;10682;50.874;3.656;2023-10-19T19:34:01;16.40;99.90
21047;DHT22;10682;50.874;3.656;2023-10-19T19:36:29;16.50;99.90
21047;DHT22;10682;50.874;3.656;2023-10-19T19:38:57;16.50;99.90
21047;DHT22;10682;50.874;3.656;2023-10-19T19:41:24;16.50;99.90
21047;DHT22;10682;50.874;3.656;2023-10-19T19:43:52;16.50;99.90
21047;DHT22;10682;50.874;3.656;2023-10-19T19:46:19;16.50;99.90
21047;DHT22;10682;50.874;3.656;2023-10-19T19:48:47;16.50;99.90
21047;DHT22;10682;50.874;3.656;2023-10-19T19:51:15;16.50;99.90
21047;DHT22;10682;50.874;3.656;2023-10-19T19:53:43;16.50;99.90
21047;DHT22;10682;50.874;3.656;2023-10-19T19:56:11;16.50;99.90
21047;DHT22;10682;50.874;3.656;2023-10-19T19:58:38;16.50;99.90
21047;DHT22;10682;50.874;3.656;2023-10-19T20:01:05;16.60;99.90
21047;DHT22;10682;50.874;3.656;2023-10-19T20:03:33;16.60;99.90
21047;DHT22;10682;50.874;3.656;2023-10-19T20:06:01;16.60;99.90
21047;DHT22;10682;50.874;3.656;2023-10-19T20:08:28;16.50;99.90
21047;DHT22;10682;50.874;3.656;2023-10-19T20:10:57;16.60;99.90
21047;DHT22;10682;50.874;3.656;2023-10-19T20:13:27;16.50;99.90
21047;DHT22;10682;50.874;3.656;2023-10-19T20:16:00;16.50;99.90
21047;DHT22;10682;50.874;3.656;2023-10-19T20:18:30;16.50;99.90
21047;DHT22;10682;50.874;3.656;2023-10-19T20:20:57;16.50;99.90
21047;DHT22;10682;50.874;3.656;2023-10-19T20:23:24;16.50;99.90
21047;DHT22;10682;50.874;3.656;2023-10-19T20:25:51;16.50;99.90
21047;DHT22;10682;50.874;3.656;2023-10-19T20:28:18;16.50;99.90
21047;DHT22;10682;50.874;3.656;2023-10-19T20:30:46;16.50;99.90
21047;DHT22;10682;50.874;3.656;2023-10-19T20:33:14;16.60;99.90
21047;DHT22;10682;50.874;3.656;2023-10-19T20:35:41;16.50;99.90
21047;DHT22;10682;50.874;3.656;2023-10-19T20:38:08;16.50;99.90
21047;DHT22;10682;50.874;3.656;2023-10-19T20:40:39;16.50;99.90
21047;DHT22;10682;50.874;3.656;2023-10-19T20:43:08;16.50;99.90
21047;DHT22;10682;50.874;3.656;2023-10-19T20:45:36;16.50;99.90
21047;DHT22;10682;50.874;3.656;2023-10-19T20:48:05;16.40;99.90
21047;DHT22;10682;50.874;3.656;2023-10-19T20:50:34;16.40;99.90
21047;DHT22;10682;50.874;3.656;2023-10-19T20:53:01;16.30;99.90
21047;DHT22;10682;50.874;3.656;2023-10-19T20:55:30;16.30;99.90
21047;DHT22;10682;50.874;3.656;2023-10-19T20:57:57;16.30;99.90
21047;DHT22;10682;50.874;3.656;2023-10-19T21:00:25;16.30;99.90
21047;DHT22;10682;50.874;3.656;2023-10-19T21:02:52;16.30;99.90
21047;DHT22;10682;50.874;3.656;2023-10-19T21:05:20;16.30;99.90
21047;DHT22;10682;50.874;3.656;2023-10-19T21:07:48;16.30;99.90
21047;DHT22;10682;50.874;3.656;2023-10-19T21:10:17;16.30;99.90
21047;DHT22;10682;50.874;3.656;2023-10-19T21:12:44;16.30;99.90
21047;DHT22;10682;50.874;3.656;2023-10-19T21:15:13;16.30;99.90
21047;DHT22;10682;50.874;3.656;2023-10-19T21:17:41;16.30;99.90
21047;DHT22;10682;50.874;3.656;2023-10-19T21:20:12;16.30;99.90
21047;DHT22;10682;50.874;3.656;2023-10-19T21:22:46;16.30;99.90
21047;DHT22;10682;50.874;3.656;2023-10-19T21:25:17;16.30;99.90
21047;DHT22;10682;50.874;3.656;2023-10-19T21:27:46;16.40;99.90
21047;DHT22;10682;50.874;3.656;2023-10-19T21:30:17;16.40;99.90
21047;DHT22;10682;50.874;3.656;2023-10-19T21:32:45;16.30;99.90
21047;DHT22;10682;50.874;3.656;2023-10-19T21:35:16;16.30;99.90
21047;DHT22;10682;50.874;3.656;2023-10-19T21:37:43;16.30;99.90
21047;DHT22;10682;50.874;3.656;2023-10-19T21:40:12;16.40;99.90
21047;DHT22;10682;50.874;3.656;2023-10-19T21:42:40;16.50;99.90
21047;DHT22;10682;50.874;3.656;2023-10-19T21:45:13;16.50;99.90
21047;DHT22;10682;50.874;3.656;2023-10-19T21:47:42;16.50;99.90
21047;DHT22;10682;50.874;3.656;2023-10-19T21:50:09;16.50;99.90
21047;DHT22;10682;50.874;3.656;2023-10-19T21:52:39;16.50;99.90
21047;DHT22;10682;50.874;3.656;2023-10-19T21:55:08;16.50;99.90
21047;DHT22;10682;50.874;3.656;2023-10-19T21:57:37;16.50;99.90
21047;DHT22;10682;50.874;3.656;2023-10-19T22:00:05;16.50;99.90
21047;DHT22;10682;50.874;3.656;2023-10-19T22:02:41;16.50;99.90
21047;DHT22;10682;50.874;3.656;2023-10-19T22:05:26;16.50;99.90
21047;DHT22;10682;50.874;3.656;2023-10-19T22:07:55;16.40;99.90
21047;DHT22;10682;50.874;3.656;2023-10-19T22:10:22;16.50;99.90
21047;DHT22;10682;50.874;3.656;2023-10-19T22:12:50;16.50;99.90
21047;DHT22;10682;50.874;3.656;2023-10-19T22:15:20;16.50;99.90
21047;DHT22;10682;50.874;3.656;2023-10-19T22:17:48;16.50;99.90
21047;DHT22;10682;50.874;3.656;2023-10-19T22:20:18;16.50;99.90
21047;DHT22;10682;50.874;3.656;2023-10-19T22:22:45;16.50;99.90
21047;DHT22;10682;50.874;3.656;2023-10-19T22:25:13;16.40;99.90
21047;DHT22;10682;50.874;3.656;2023-10-19T22:27:41;16.50;99.90
21047;DHT22;10682;50.874;3.656;2023-10-19T22:30:08;16.40;99.90
21047;DHT22;10682;50.874;3.656;2023-10-19T22:32:36;16.40;99.90
21047;DHT22;10682;50.874;3.656;2023-10-19T22:35:03;16.40;99.90
21047;DHT22;10682;50.874;3.656;2023-10-19T22:37:33;16.40;99.90